PDT,Max TemperatureF,Mean TemperatureF,Min TemperatureF,Max Dew PointF,MeanDew PointF,Min DewpointF,Max Humidity, Mean Humidity, Min Humidity, Max Sea Level PressureIn, Mean Sea Level PressureIn, Min Sea Level PressureIn, Max VisibilityMiles, Mean VisibilityMiles, Min VisibilityMiles, Max Wind SpeedMPH, Mean Wind SpeedMPH, Max Gust SpeedMPH,PrecipitationIn, CloudCover, Events, WindDirDegrees
2013-9-1,97,76,55,49,44,40,62,38,14,29.87,29.79,29.71,10,10,10,15,7,18,0.00,0,,348
2013-9-2,87,72,56,57,50,45,67,48,29,29.85,29.80,29.74,10,10,10,16,7,21,0.00,1,,76
2013-9-3,91,78,64,58,54,47,73,48,23,29.91,29.88,29.84,10,10,10,14,6,21,0.00,1,,127
2013-9-4,90,76,62,58,52,47,60,43,26,29.96,29.91,29.87,10,10,10,13,5,17,0.00,0,Thunderstorm,32
2013-9-5,89,77,64,63,58,51,87,62,36,29.95,29.88,29.78,10,10,9,31,8,45,0.09,2,Rain-Thunderstorm,62
2013-9-6,69,62,55,61,57,53,97,80,63,30.12,30.02,29.90,10,9,2,21,6,25,0.27,4,Rain-Thunderstorm,159
2013-9-7,69,60,51,56,54,50,100,80,59,30.13,30.09,30.04,10,10,10,12,5,14,0.00,4,,21
2013-9-8,83,66,49,56,53,48,100,67,34,30.09,30.02,29.93,10,10,10,13,5,16,0.00,0,,184
2013-9-9,87,70,53,56,53,47,93,60,27,30.00,29.94,29.89,10,10,10,9,3,10,0.00,0,,304
2013-9-10,93,74,55,54,50,45,86,54,21,30.01,29.96,29.91,10,10,10,12,6,16,0.00,0,,355
2013-9-11,98,77,56,52,49,46,72,45,17,30.03,29.97,29.91,10,10,10,13,7,26,0.00,0,,10
2013-9-12,99,79,59,55,50,44,75,46,16,29.97,29.89,29.81,10,10,10,12,5,15,0.00,0,,4
2013-9-13,96,76,56,57,52,50,77,49,21,29.83,29.76,29.68,10,10,10,9,4,13,0.00,0,,270
2013-9-14,94,77,59,57,53,48,78,51,24,29.84,29.77,29.73,10,10,10,12,6,14,0.00,0,,28
2013-9-15,96,78,60,61,51,45,84,52,20,29.75,29.69,29.55,10,9,2,13,6,16,0.42,1,Rain-Thunderstorm,55
2013-9-16,79,69,58,60,54,46,93,63,32,29.84,29.80,29.74,10,10,9,20,7,25,0.00,1,,195
2013-9-17,72,61,50,52,49,44,89,67,44,29.81,29.75,29.69,10,10,10,16,7,21,0.00,1,,266
2013-9-18,75,63,50,45,41,37,71,48,25,30.05,29.93,29.80,10,10,10,15,7,20,0.00,3,,242
2013-9-19,77,59,40,44,40,34,93,57,21,30.11,30.02,29.88,10,10,10,9,5,16,0.00,0,,34
2013-9-20,79,64,48,47,40,33,80,50,19,29.87,29.69,29.55,10,10,10,10,6,14,0.00,0,,315
2013-9-21,76,64,51,51,46,41,77,54,31,29.65,29.61,29.57,10,10,10,17,9,22,0.00,1,,192
2013-9-22,68,57,45,51,46,40,93,65,37,29.73,29.67,29.64,10,10,10,28,10,37,0.02,2,Rain,181
2013-9-23,67,57,46,47,44,42,86,66,45,29.91,29.87,29.73,10,10,10,16,8,23,0.00,3,,200
2013-9-24,67,55,42,46,40,29,86,55,24,29.90,29.82,29.76,10,10,10,15,5,20,0.00,2,,198
2013-9-25,70,56,42,43,37,29,92,57,22,29.93,29.82,29.78,10,10,10,18,8,24,0.00,3,,13
2013-9-26,71,61,50,44,37,31,77,50,23,30.05,29.99,29.92,10,10,8,20,9,26,0.00,5,,343
2013-9-27,58,49,39,47,42,35,92,72,51,30.09,29.99,29.89,10,10,9,17,8,21,0.02,4,Rain,171
2013-9-28,67,58,49,53,50,46,100,76,52,29.88,29.66,29.43,10,10,10,29,15,36,0.10,6,Rain,176
2013-9-29,64,57,49,47,43,41,80,65,49,29.63,29.54,29.35,10,10,10,28,16,36,0.01,4,Rain,184
2013-9-30,65,55,45,49,39,36,76,57,37,29.91,29.71,29.37,10,10,10,29,13,37,0.00,2,,214